sensor_id;sensor_type;location;lat;lon;timestamp;P1;durP1;ratioP1;P2;durP2;ratioP2
11334;SDS011;5722;42.620;23.374;2024-02-14T00:01:08;7.30;;;4.97;;
11334;SDS011;5722;42.620;23.374;2024-02-14T00:03:45;6.13;;;5.53;;
11334;SDS011;5722;42.620;23.374;2024-02-14T00:06:13;5.80;;;5.20;;
11334;SDS011;5722;42.620;23.374;2024-02-14T00:08:40;6.10;;;5.50;;
11334;SDS011;5722;42.620;23.374;2024-02-14T00:11:08;6.57;;;5.57;;
11334;SDS011;5722;42.620;23.374;2024-02-14T00:13:36;6.53;;;5.83;;
11334;SDS011;5722;42.620;23.374;2024-02-14T00:16:05;6.43;;;5.70;;
11334;SDS011;5722;42.620;23.374;2024-02-14T00:18:41;6.27;;;5.67;;
11334;SDS011;5722;42.620;23.374;2024-02-14T00:21:18;6.83;;;5.33;;
11334;SDS011;5722;42.620;23.374;2024-02-14T00:23:45;6.53;;;5.83;;
11334;SDS011;5722;42.620;23.374;2024-02-14T00:26:12;6.43;;;5.30;;
11334;SDS011;5722;42.620;23.374;2024-02-14T00:31:32;6.00;;;5.40;;
11334;SDS011;5722;42.620;23.374;2024-02-14T00:36:42;6.43;;;5.73;;
11334;SDS011;5722;42.620;23.374;2024-02-14T00:39:18;5.67;;;5.07;;
11334;SDS011;5722;42.620;23.374;2024-02-14T00:41:48;6.53;;;5.93;;
11334;SDS011;5722;42.620;23.374;2024-02-14T00:44:17;7.30;;;6.23;;
11334;SDS011;5722;42.620;23.374;2024-02-14T00:46:46;6.53;;;5.37;;
11334;SDS011;5722;42.620;23.374;2024-02-14T00:49:19;7.93;;;6.10;;
11334;SDS011;5722;42.620;23.374;2024-02-14T00:52:05;7.30;;;5.97;;
11334;SDS011;5722;42.620;23.374;2024-02-14T00:54:34;6.57;;;5.73;;
11334;SDS011;5722;42.620;23.374;2024-02-14T00:57:02;7.17;;;6.17;;
11334;SDS011;5722;42.620;23.374;2024-02-14T00:59:30;7.10;;;6.40;;
11334;SDS011;5722;42.620;23.374;2024-02-14T01:02:06;6.13;;;5.50;;
11334;SDS011;5722;42.620;23.374;2024-02-14T01:04:36;8.37;;;6.20;;
11334;SDS011;5722;42.620;23.374;2024-02-14T01:07:04;6.53;;;5.77;;
11334;SDS011;5722;42.620;23.374;2024-02-14T01:09:34;7.03;;;5.97;;
11334;SDS011;5722;42.620;23.374;2024-02-14T01:12:02;6.60;;;5.87;;
11334;SDS011;5722;42.620;23.374;2024-02-14T01:14:32;8.40;;;6.13;;
11334;SDS011;5722;42.620;23.374;2024-02-14T01:17:02;7.50;;;6.57;;
11334;SDS011;5722;42.620;23.374;2024-02-14T01:19:40;6.57;;;5.83;;
11334;SDS011;5722;42.620;23.374;2024-02-14T01:22:09;7.00;;;6.20;;
11334;SDS011;5722;42.620;23.374;2024-02-14T01:24:36;6.60;;;5.67;;
11334;SDS011;5722;42.620;23.374;2024-02-14T01:27:05;7.47;;;6.40;;
11334;SDS011;5722;42.620;23.374;2024-02-14T01:29:46;7.30;;;6.43;;
11334;SDS011;5722;42.620;23.374;2024-02-14T01:32:23;7.20;;;6.50;;
11334;SDS011;5722;42.620;23.374;2024-02-14T01:35:06;7.23;;;6.20;;
11334;SDS011;5722;42.620;23.374;2024-02-14T01:37:36;8.63;;;6.30;;
11334;SDS011;5722;42.620;23.374;2024-02-14T01:40:05;7.93;;;6.43;;
11334;SDS011;5722;42.620;23.374;2024-02-14T01:42:34;9.87;;;6.87;;
11334;SDS011;5722;42.620;23.374;2024-02-14T01:45:01;7.87;;;6.60;;
11334;SDS011;5722;42.620;23.374;2024-02-14T01:47:32;8.70;;;6.43;;
11334;SDS011;5722;42.620;23.374;2024-02-14T01:50:01;7.00;;;6.30;;
11334;SDS011;5722;42.620;23.374;2024-02-14T01:52:38;7.33;;;6.50;;
11334;SDS011;5722;42.620;23.374;2024-02-14T01:55:11;7.57;;;6.73;;
11334;SDS011;5722;42.620;23.374;2024-02-14T01:57:41;7.27;;;6.57;;
11334;SDS011;5722;42.620;23.374;2024-02-14T02:00:12;7.47;;;6.70;;
11334;SDS011;5722;42.620;23.374;2024-02-14T02:05:43;8.20;;;7.00;;
11334;SDS011;5722;42.620;23.374;2024-02-14T02:08:12;8.17;;;6.80;;
11334;SDS011;5722;42.620;23.374;2024-02-14T02:10:40;7.53;;;6.40;;
11334;SDS011;5722;42.620;23.374;2024-02-14T02:13:08;8.17;;;6.63;;
11334;SDS011;5722;42.620;23.374;2024-02-14T02:15:36;7.40;;;6.60;;
11334;SDS011;5722;42.620;23.374;2024-02-14T02:18:06;7.63;;;6.80;;
11334;SDS011;5722;42.620;23.374;2024-02-14T02:20:33;7.10;;;6.33;;
11334;SDS011;5722;42.620;23.374;2024-02-14T02:23:08;6.67;;;5.90;;
11334;SDS011;5722;42.620;23.374;2024-02-14T02:25:35;9.77;;;7.27;;
11334;SDS011;5722;42.620;23.374;2024-02-14T02:28:04;7.00;;;6.30;;
11334;SDS011;5722;42.620;23.374;2024-02-14T02:30:35;7.93;;;6.13;;
11334;SDS011;5722;42.620;23.374;2024-02-14T02:33:02;8.07;;;6.43;;
11334;SDS011;5722;42.620;23.374;2024-02-14T02:35:39;6.83;;;6.10;;
11334;SDS011;5722;42.620;23.374;2024-02-14T02:38:13;8.00;;;6.63;;
11334;SDS011;5722;42.620;23.374;2024-02-14T02:40:40;7.13;;;6.27;;
11334;SDS011;5722;42.620;23.374;2024-02-14T02:43:25;7.10;;;6.40;;
11334;SDS011;5722;42.620;23.374;2024-02-14T02:45:56;10.47;;;7.07;;
11334;SDS011;5722;42.620;23.374;2024-02-14T02:48:34;6.90;;;6.17;;
11334;SDS011;5722;42.620;23.374;2024-02-14T02:51:02;7.77;;;6.50;;
11334;SDS011;5722;42.620;23.374;2024-02-14T02:53:32;7.57;;;6.77;;
11334;SDS011;5722;42.620;23.374;2024-02-14T02:56:00;7.63;;;6.40;;
11334;SDS011;5722;42.620;23.374;2024-02-14T02:58:29;7.70;;;6.47;;
11334;SDS011;5722;42.620;23.374;2024-02-14T03:00:58;7.23;;;6.50;;
11334;SDS011;5722;42.620;23.374;2024-02-14T03:03:26;7.93;;;6.77;;
11334;SDS011;5722;42.620;23.374;2024-02-14T03:05:54;6.93;;;6.23;;
11334;SDS011;5722;42.620;23.374;2024-02-14T03:08:25;7.47;;;6.60;;
11334;SDS011;5722;42.620;23.374;2024-02-14T03:11:14;8.23;;;6.17;;
11334;SDS011;5722;42.620;23.374;2024-02-14T03:13:45;7.87;;;6.57;;
11334;SDS011;5722;42.620;23.374;2024-02-14T03:16:15;7.73;;;6.50;;
11334;SDS011;5722;42.620;23.374;2024-02-14T03:18:43;7.13;;;6.43;;
11334;SDS011;5722;42.620;23.374;2024-02-14T03:21:12;6.93;;;6.23;;
11334;SDS011;5722;42.620;23.374;2024-02-14T03:23:40;7.93;;;6.93;;
11334;SDS011;5722;42.620;23.374;2024-02-14T03:26:07;7.33;;;6.63;;
11334;SDS011;5722;42.620;23.374;2024-02-14T03:28:47;7.10;;;6.30;;
11334;SDS011;5722;42.620;23.374;2024-02-14T03:31:28;8.10;;;6.63;;
11334;SDS011;5722;42.620;23.374;2024-02-14T03:34:01;7.13;;;6.00;;
11334;SDS011;5722;42.620;23.374;2024-02-14T03:36:30;7.27;;;6.57;;
11334;SDS011;5722;42.620;23.374;2024-02-14T03:39:03;7.30;;;6.43;;
11334;SDS011;5722;42.620;23.374;2024-02-14T03:41:31;10.00;;;5.87;;
11334;SDS011;5722;42.620;23.374;2024-02-14T03:44:05;7.70;;;6.47;;
11334;SDS011;5722;42.620;23.374;2024-02-14T03:46:32;7.57;;;6.70;;
11334;SDS011;5722;42.620;23.374;2024-02-14T03:49:11;8.13;;;6.67;;
11334;SDS011;5722;42.620;23.374;2024-02-14T03:51:38;7.73;;;6.20;;
11334;SDS011;5722;42.620;23.374;2024-02-14T03:56:47;7.77;;;6.43;;
11334;SDS011;5722;42.620;23.374;2024-02-14T03:59:19;7.13;;;6.43;;
11334;SDS011;5722;42.620;23.374;2024-02-14T04:01:50;7.63;;;6.37;;
11334;SDS011;5722;42.620;23.374;2024-02-14T04:04:24;7.27;;;6.20;;
11334;SDS011;5722;42.620;23.374;2024-02-14T04:06:51;8.40;;;6.90;;
11334;SDS011;5722;42.620;23.374;2024-02-14T04:09:19;9.17;;;6.77;;
11334;SDS011;5722;42.620;23.374;2024-02-14T04:11:55;7.93;;;7.10;;
11334;SDS011;5722;42.620;23.374;2024-02-14T04:14:42;9.83;;;6.53;;
11334;SDS011;5722;42.620;23.374;2024-02-14T04:17:11;7.30;;;6.50;;
11334;SDS011;5722;42.620;23.374;2024-02-14T04:19:39;8.73;;;6.80;;
11334;SDS011;5722;42.620;23.374;2024-02-14T04:22:11;7.23;;;6.10;;
11334;SDS011;5722;42.620;23.374;2024-02-14T04:24:39;7.43;;;6.57;;
11334;SDS011;5722;42.620;23.374;2024-02-14T04:27:06;8.17;;;7.13;;
11334;SDS011;5722;42.620;23.374;2024-02-14T04:29:33;8.27;;;6.73;;
11334;SDS011;5722;42.620;23.374;2024-02-14T04:32:08;8.63;;;6.90;;
11334;SDS011;5722;42.620;23.374;2024-02-14T04:34:47;8.70;;;7.43;;
11334;SDS011;5722;42.620;23.374;2024-02-14T04:37:14;9.30;;;7.67;;
11334;SDS011;5722;42.620;23.374;2024-02-14T04:39:45;7.57;;;6.83;;
11334;SDS011;5722;42.620;23.374;2024-02-14T04:42:28;8.77;;;7.10;;
11334;SDS011;5722;42.620;23.374;2024-02-14T04:44:56;9.40;;;7.13;;
11334;SDS011;5722;42.620;23.374;2024-02-14T04:47:47;8.00;;;7.17;;
11334;SDS011;5722;42.620;23.374;2024-02-14T04:50:23;14.80;;;8.07;;
11334;SDS011;5722;42.620;23.374;2024-02-14T04:53:06;10.93;;;8.17;;
11334;SDS011;5722;42.620;23.374;2024-02-14T04:55:36;9.13;;;7.50;;
11334;SDS011;5722;42.620;23.374;2024-02-14T04:58:04;9.50;;;8.10;;
11334;SDS011;5722;42.620;23.374;2024-02-14T05:00:34;8.93;;;7.77;;
11334;SDS011;5722;42.620;23.374;2024-02-14T05:03:06;9.67;;;8.40;;
11334;SDS011;5722;42.620;23.374;2024-02-14T05:05:38;10.17;;;7.97;;
11334;SDS011;5722;42.620;23.374;2024-02-14T05:08:09;9.53;;;8.53;;
11334;SDS011;5722;42.620;23.374;2024-02-14T05:10:41;11.03;;;8.53;;
11334;SDS011;5722;42.620;23.374;2024-02-14T05:13:13;9.00;;;8.10;;
11334;SDS011;5722;42.620;23.374;2024-02-14T05:15:42;10.53;;;8.70;;
11334;SDS011;5722;42.620;23.374;2024-02-14T05:18:22;13.97;;;9.10;;
11334;SDS011;5722;42.620;23.374;2024-02-14T05:21:00;9.37;;;8.00;;
11334;SDS011;5722;42.620;23.374;2024-02-14T05:23:39;11.63;;;8.57;;
11334;SDS011;5722;42.620;23.374;2024-02-14T05:26:13;10.37;;;8.90;;
11334;SDS011;5722;42.620;23.374;2024-02-14T05:28:41;9.93;;;8.90;;
11334;SDS011;5722;42.620;23.374;2024-02-14T05:31:09;11.80;;;9.23;;
11334;SDS011;5722;42.620;23.374;2024-02-14T05:33:49;11.03;;;9.07;;
11334;SDS011;5722;42.620;23.374;2024-02-14T05:36:36;10.00;;;8.97;;
11334;SDS011;5722;42.620;23.374;2024-02-14T05:39:04;12.57;;;9.50;;
11334;SDS011;5722;42.620;23.374;2024-02-14T05:41:31;13.30;;;9.13;;
11334;SDS011;5722;42.620;23.374;2024-02-14T05:44:03;11.37;;;9.97;;
11334;SDS011;5722;42.620;23.374;2024-02-14T05:46:32;15.80;;;9.47;;
11334;SDS011;5722;42.620;23.374;2024-02-14T05:49:03;11.73;;;10.20;;
11334;SDS011;5722;42.620;23.374;2024-02-14T05:51:32;10.80;;;9.70;;
11334;SDS011;5722;42.620;23.374;2024-02-14T05:54:00;11.67;;;9.83;;
11334;SDS011;5722;42.620;23.374;2024-02-14T05:56:29;10.73;;;9.57;;
11334;SDS011;5722;42.620;23.374;2024-02-14T05:59:10;10.57;;;9.47;;
11334;SDS011;5722;42.620;23.374;2024-02-14T06:01:38;10.90;;;9.73;;
11334;SDS011;5722;42.620;23.374;2024-02-14T06:04:08;11.57;;;9.67;;
11334;SDS011;5722;42.620;23.374;2024-02-14T06:06:34;12.93;;;9.17;;
11334;SDS011;5722;42.620;23.374;2024-02-14T06:09:01;10.77;;;9.33;;
11334;SDS011;5722;42.620;23.374;2024-02-14T06:11:34;12.23;;;9.70;;
11334;SDS011;5722;42.620;23.374;2024-02-14T06:14:01;11.80;;;9.27;;
11334;SDS011;5722;42.620;23.374;2024-02-14T06:16:33;12.53;;;9.97;;
11334;SDS011;5722;42.620;23.374;2024-02-14T06:19:00;11.20;;;9.80;;
11334;SDS011;5722;42.620;23.374;2024-02-14T06:21:31;9.50;;;8.43;;
11334;SDS011;5722;42.620;23.374;2024-02-14T06:23:59;18.43;;;10.00;;
11334;SDS011;5722;42.620;23.374;2024-02-14T06:26:29;10.73;;;9.47;;
11334;SDS011;5722;42.620;23.374;2024-02-14T06:28:57;10.83;;;9.13;;
11334;SDS011;5722;42.620;23.374;2024-02-14T06:31:29;10.77;;;8.97;;
11334;SDS011;5722;42.620;23.374;2024-02-14T06:33:55;10.27;;;9.17;;
11334;SDS011;5722;42.620;23.374;2024-02-14T06:36:22;13.07;;;8.10;;
11334;SDS011;5722;42.620;23.374;2024-02-14T06:38:50;9.50;;;7.90;;
11334;SDS011;5722;42.620;23.374;2024-02-14T06:41:18;10.33;;;8.50;;
11334;SDS011;5722;42.620;23.374;2024-02-14T06:43:48;10.10;;;8.40;;
11334;SDS011;5722;42.620;23.374;2024-02-14T06:46:16;13.10;;;8.03;;
11334;SDS011;5722;42.620;23.374;2024-02-14T06:48:43;12.17;;;9.00;;
11334;SDS011;5722;42.620;23.374;2024-02-14T06:51:10;10.03;;;8.43;;
11334;SDS011;5722;42.620;23.374;2024-02-14T06:53:37;12.40;;;8.43;;
11334;SDS011;5722;42.620;23.374;2024-02-14T06:56:06;11.43;;;9.00;;
11334;SDS011;5722;42.620;23.374;2024-02-14T06:58:33;8.43;;;7.57;;
11334;SDS011;5722;42.620;23.374;2024-02-14T07:01:02;12.07;;;8.80;;
11334;SDS011;5722;42.620;23.374;2024-02-14T07:03:33;11.70;;;8.47;;
11334;SDS011;5722;42.620;23.374;2024-02-14T07:05:59;8.87;;;7.97;;
11334;SDS011;5722;42.620;23.374;2024-02-14T07:08:26;10.30;;;8.00;;
11334;SDS011;5722;42.620;23.374;2024-02-14T07:10:54;11.47;;;8.43;;
11334;SDS011;5722;42.620;23.374;2024-02-14T07:13:24;9.23;;;8.07;;
11334;SDS011;5722;42.620;23.374;2024-02-14T07:15:51;13.37;;;8.23;;
11334;SDS011;5722;42.620;23.374;2024-02-14T07:18:17;10.30;;;8.07;;
11334;SDS011;5722;42.620;23.374;2024-02-14T07:20:45;10.47;;;8.17;;
11334;SDS011;5722;42.620;23.374;2024-02-14T07:23:12;9.73;;;8.47;;
11334;SDS011;5722;42.620;23.374;2024-02-14T07:25:39;9.87;;;8.10;;
11334;SDS011;5722;42.620;23.374;2024-02-14T07:28:11;9.47;;;7.67;;
11334;SDS011;5722;42.620;23.374;2024-02-14T07:30:40;13.07;;;7.90;;
11334;SDS011;5722;42.620;23.374;2024-02-14T07:33:09;11.07;;;8.00;;
11334;SDS011;5722;42.620;23.374;2024-02-14T07:35:40;8.53;;;7.23;;
11334;SDS011;5722;42.620;23.374;2024-02-14T07:38:08;10.07;;;6.67;;
11334;SDS011;5722;42.620;23.374;2024-02-14T07:40:37;8.07;;;7.27;;
11334;SDS011;5722;42.620;23.374;2024-02-14T07:43:06;8.73;;;7.43;;
11334;SDS011;5722;42.620;23.374;2024-02-14T07:45:33;8.00;;;7.20;;
11334;SDS011;5722;42.620;23.374;2024-02-14T07:48:01;9.60;;;7.70;;
11334;SDS011;5722;42.620;23.374;2024-02-14T07:50:30;12.67;;;7.77;;
11334;SDS011;5722;42.620;23.374;2024-02-14T07:52:57;14.70;;;7.73;;
11334;SDS011;5722;42.620;23.374;2024-02-14T07:55:24;9.40;;;7.40;;
11334;SDS011;5722;42.620;23.374;2024-02-14T07:57:51;10.20;;;7.73;;
11334;SDS011;5722;42.620;23.374;2024-02-14T08:00:24;9.23;;;7.07;;
11334;SDS011;5722;42.620;23.374;2024-02-14T08:02:51;8.23;;;7.30;;
11334;SDS011;5722;42.620;23.374;2024-02-14T08:05:20;8.13;;;6.90;;
11334;SDS011;5722;42.620;23.374;2024-02-14T08:07:47;12.67;;;7.13;;
11334;SDS011;5722;42.620;23.374;2024-02-14T08:10:14;10.97;;;7.47;;
11334;SDS011;5722;42.620;23.374;2024-02-14T08:12:42;8.83;;;7.90;;
11334;SDS011;5722;42.620;23.374;2024-02-14T08:15:09;8.13;;;7.20;;
11334;SDS011;5722;42.620;23.374;2024-02-14T08:17:35;8.57;;;7.50;;
11334;SDS011;5722;42.620;23.374;2024-02-14T08:20:03;8.40;;;7.10;;
11334;SDS011;5722;42.620;23.374;2024-02-14T08:22:33;10.20;;;7.33;;
11334;SDS011;5722;42.620;23.374;2024-02-14T08:24:59;7.80;;;7.00;;
11334;SDS011;5722;42.620;23.374;2024-02-14T08:27:26;8.63;;;6.70;;
11334;SDS011;5722;42.620;23.374;2024-02-14T08:29:57;8.77;;;7.47;;
11334;SDS011;5722;42.620;23.374;2024-02-14T08:32:25;9.57;;;7.93;;
11334;SDS011;5722;42.620;23.374;2024-02-14T08:34:53;8.77;;;7.03;;
11334;SDS011;5722;42.620;23.374;2024-02-14T08:37:20;8.70;;;6.77;;
11334;SDS011;5722;42.620;23.374;2024-02-14T08:39:52;8.67;;;7.00;;
11334;SDS011;5722;42.620;23.374;2024-02-14T08:42:19;13.33;;;8.00;;
11334;SDS011;5722;42.620;23.374;2024-02-14T08:44:47;9.13;;;7.33;;
11334;SDS011;5722;42.620;23.374;2024-02-14T08:47:21;8.00;;;6.83;;
11334;SDS011;5722;42.620;23.374;2024-02-14T08:49:48;9.30;;;7.43;;
11334;SDS011;5722;42.620;23.374;2024-02-14T08:52:22;10.27;;;7.30;;
11334;SDS011;5722;42.620;23.374;2024-02-14T08:54:53;9.10;;;7.00;;
11334;SDS011;5722;42.620;23.374;2024-02-14T08:57:20;8.47;;;6.73;;
11334;SDS011;5722;42.620;23.374;2024-02-14T08:59:48;8.77;;;6.87;;
11334;SDS011;5722;42.620;23.374;2024-02-14T09:02:23;7.80;;;6.43;;
11334;SDS011;5722;42.620;23.374;2024-02-14T09:04:50;7.70;;;6.90;;
11334;SDS011;5722;42.620;23.374;2024-02-14T09:07:18;12.63;;;6.53;;
11334;SDS011;5722;42.620;23.374;2024-02-14T09:09:54;7.67;;;6.83;;
11334;SDS011;5722;42.620;23.374;2024-02-14T09:12:23;7.73;;;6.70;;
11334;SDS011;5722;42.620;23.374;2024-02-14T09:14:51;7.63;;;6.37;;
11334;SDS011;5722;42.620;23.374;2024-02-14T09:17:22;8.43;;;6.97;;
11334;SDS011;5722;42.620;23.374;2024-02-14T09:19:50;7.83;;;6.80;;
11334;SDS011;5722;42.620;23.374;2024-02-14T09:22:17;10.37;;;7.17;;
11334;SDS011;5722;42.620;23.374;2024-02-14T09:24:46;7.80;;;7.00;;
11334;SDS011;5722;42.620;23.374;2024-02-14T09:27:16;8.33;;;6.73;;
11334;SDS011;5722;42.620;23.374;2024-02-14T09:29:44;8.70;;;6.57;;
11334;SDS011;5722;42.620;23.374;2024-02-14T09:32:11;9.43;;;6.90;;
11334;SDS011;5722;42.620;23.374;2024-02-14T09:34:41;8.90;;;6.53;;
11334;SDS011;5722;42.620;23.374;2024-02-14T09:37:25;8.83;;;6.93;;
11334;SDS011;5722;42.620;23.374;2024-02-14T09:39:52;7.67;;;6.30;;
11334;SDS011;5722;42.620;23.374;2024-02-14T09:42:24;7.47;;;6.30;;
11334;SDS011;5722;42.620;23.374;2024-02-14T09:44:52;8.90;;;6.87;;
11334;SDS011;5722;42.620;23.374;2024-02-14T09:47:20;8.57;;;6.73;;
11334;SDS011;5722;42.620;23.374;2024-02-14T09:49:47;8.10;;;6.93;;
11334;SDS011;5722;42.620;23.374;2024-02-14T09:52:17;8.07;;;7.07;;
11334;SDS011;5722;42.620;23.374;2024-02-14T09:54:45;7.80;;;7.00;;
11334;SDS011;5722;42.620;23.374;2024-02-14T09:57:13;7.47;;;6.43;;
11334;SDS011;5722;42.620;23.374;2024-02-14T09:59:51;9.47;;;7.50;;
11334;SDS011;5722;42.620;23.374;2024-02-14T10:02:20;8.37;;;7.10;;
11334;SDS011;5722;42.620;23.374;2024-02-14T10:04:54;9.30;;;7.17;;
11334;SDS011;5722;42.620;23.374;2024-02-14T10:07:28;8.07;;;6.17;;
11334;SDS011;5722;42.620;23.374;2024-02-14T10:10:05;9.53;;;7.60;;
11334;SDS011;5722;42.620;23.374;2024-02-14T10:12:32;10.73;;;6.70;;
11334;SDS011;5722;42.620;23.374;2024-02-14T10:15:01;7.50;;;6.67;;
11334;SDS011;5722;42.620;23.374;2024-02-14T10:17:29;9.20;;;6.80;;
11334;SDS011;5722;42.620;23.374;2024-02-14T10:19:58;14.57;;;6.73;;
11334;SDS011;5722;42.620;23.374;2024-02-14T10:22:36;8.77;;;7.33;;
11334;SDS011;5722;42.620;23.374;2024-02-14T10:25:04;7.53;;;6.73;;
11334;SDS011;5722;42.620;23.374;2024-02-14T10:27:34;9.07;;;7.10;;
11334;SDS011;5722;42.620;23.374;2024-02-14T10:30:05;8.33;;;7.07;;
11334;SDS011;5722;42.620;23.374;2024-02-14T10:32:36;8.40;;;6.87;;
11334;SDS011;5722;42.620;23.374;2024-02-14T10:35:06;7.43;;;6.50;;
11334;SDS011;5722;42.620;23.374;2024-02-14T10:37:35;8.70;;;6.90;;
11334;SDS011;5722;42.620;23.374;2024-02-14T10:40:11;7.70;;;6.60;;
11334;SDS011;5722;42.620;23.374;2024-02-14T10:42:40;7.30;;;6.47;;
11334;SDS011;5722;42.620;23.374;2024-02-14T10:45:11;8.33;;;6.57;;
11334;SDS011;5722;42.620;23.374;2024-02-14T10:47:40;9.23;;;6.63;;
11334;SDS011;5722;42.620;23.374;2024-02-14T10:50:09;9.70;;;6.80;;
11334;SDS011;5722;42.620;23.374;2024-02-14T10:52:39;7.70;;;5.87;;
11334;SDS011;5722;42.620;23.374;2024-02-14T10:55:21;7.87;;;6.10;;
11334;SDS011;5722;42.620;23.374;2024-02-14T11:00:41;8.63;;;6.87;;
11334;SDS011;5722;42.620;23.374;2024-02-14T11:03:09;7.80;;;6.20;;
11334;SDS011;5722;42.620;23.374;2024-02-14T11:05:46;6.80;;;5.97;;
11334;SDS011;5722;42.620;23.374;2024-02-14T11:08:13;7.63;;;6.70;;
11334;SDS011;5722;42.620;23.374;2024-02-14T11:10:52;8.60;;;6.43;;
11334;SDS011;5722;42.620;23.374;2024-02-14T11:13:26;7.03;;;6.17;;
11334;SDS011;5722;42.620;23.374;2024-02-14T11:15:57;6.67;;;5.97;;
11334;SDS011;5722;42.620;23.374;2024-02-14T11:18:26;8.03;;;6.57;;
11334;SDS011;5722;42.620;23.374;2024-02-14T11:20:55;10.50;;;6.63;;
11334;SDS011;5722;42.620;23.374;2024-02-14T11:23:25;9.77;;;6.60;;
11334;SDS011;5722;42.620;23.374;2024-02-14T11:25:59;9.97;;;7.33;;
11334;SDS011;5722;42.620;23.374;2024-02-14T11:28:26;8.47;;;6.37;;
11334;SDS011;5722;42.620;23.374;2024-02-14T11:31:01;8.40;;;6.93;;
11334;SDS011;5722;42.620;23.374;2024-02-14T11:33:29;6.70;;;6.00;;
11334;SDS011;5722;42.620;23.374;2024-02-14T11:36:01;7.50;;;6.40;;
11334;SDS011;5722;42.620;23.374;2024-02-14T11:38:35;7.70;;;6.87;;
11334;SDS011;5722;42.620;23.374;2024-02-14T11:41:02;9.10;;;6.40;;
11334;SDS011;5722;42.620;23.374;2024-02-14T11:43:32;7.43;;;6.00;;
11334;SDS011;5722;42.620;23.374;2024-02-14T11:46:01;7.57;;;6.40;;
11334;SDS011;5722;42.620;23.374;2024-02-14T11:48:29;8.87;;;6.40;;
11334;SDS011;5722;42.620;23.374;2024-02-14T11:50:57;6.87;;;5.50;;
11334;SDS011;5722;42.620;23.374;2024-02-14T11:53:26;8.80;;;5.70;;
11334;SDS011;5722;42.620;23.374;2024-02-14T11:55:56;7.80;;;5.70;;
11334;SDS011;5722;42.620;23.374;2024-02-14T11:58:25;8.07;;;6.43;;
11334;SDS011;5722;42.620;23.374;2024-02-14T12:01:07;8.50;;;5.87;;
11334;SDS011;5722;42.620;23.374;2024-02-14T12:03:35;7.73;;;6.03;;
11334;SDS011;5722;42.620;23.374;2024-02-14T12:06:05;7.87;;;6.37;;
11334;SDS011;5722;42.620;23.374;2024-02-14T12:08:37;11.23;;;6.37;;
11334;SDS011;5722;42.620;23.374;2024-02-14T12:11:07;7.60;;;6.80;;
11334;SDS011;5722;42.620;23.374;2024-02-14T12:13:36;9.93;;;7.10;;
11334;SDS011;5722;42.620;23.374;2024-02-14T12:16:10;11.37;;;5.77;;
11334;SDS011;5722;42.620;23.374;2024-02-14T12:18:38;7.10;;;5.70;;
11334;SDS011;5722;42.620;23.374;2024-02-14T12:21:14;7.70;;;5.50;;
11334;SDS011;5722;42.620;23.374;2024-02-14T12:23:53;6.53;;;5.57;;
11334;SDS011;5722;42.620;23.374;2024-02-14T12:26:32;9.90;;;6.50;;
11334;SDS011;5722;42.620;23.374;2024-02-14T12:29:01;7.20;;;5.93;;
11334;SDS011;5722;42.620;23.374;2024-02-14T12:31:30;7.03;;;5.33;;
11334;SDS011;5722;42.620;23.374;2024-02-14T12:33:59;8.13;;;5.47;;
11334;SDS011;5722;42.620;23.374;2024-02-14T12:36:28;6.83;;;5.90;;
11334;SDS011;5722;42.620;23.374;2024-02-14T12:38:58;7.87;;;5.60;;
11334;SDS011;5722;42.620;23.374;2024-02-14T12:41:27;7.27;;;5.93;;
11334;SDS011;5722;42.620;23.374;2024-02-14T12:43:57;9.33;;;5.40;;
11334;SDS011;5722;42.620;23.374;2024-02-14T12:46:25;7.10;;;5.70;;
11334;SDS011;5722;42.620;23.374;2024-02-14T12:49:05;6.73;;;6.00;;
11334;SDS011;5722;42.620;23.374;2024-02-14T12:51:36;6.53;;;4.97;;
11334;SDS011;5722;42.620;23.374;2024-02-14T12:54:08;7.60;;;6.17;;
11334;SDS011;5722;42.620;23.374;2024-02-14T12:56:49;8.63;;;6.43;;
11334;SDS011;5722;42.620;23.374;2024-02-14T12:59:28;7.97;;;5.93;;
11334;SDS011;5722;42.620;23.374;2024-02-14T13:01:55;7.90;;;5.83;;
11334;SDS011;5722;42.620;23.374;2024-02-14T13:04:24;7.17;;;5.67;;
11334;SDS011;5722;42.620;23.374;2024-02-14T13:06:53;6.20;;;5.50;;
11334;SDS011;5722;42.620;23.374;2024-02-14T13:09:20;7.53;;;5.83;;
11334;SDS011;5722;42.620;23.374;2024-02-14T13:11:52;9.07;;;5.50;;
11334;SDS011;5722;42.620;23.374;2024-02-14T13:14:20;6.73;;;5.50;;
11334;SDS011;5722;42.620;23.374;2024-02-14T13:16:49;7.20;;;5.40;;
11334;SDS011;5722;42.620;23.374;2024-02-14T13:19:21;7.13;;;5.63;;
11334;SDS011;5722;42.620;23.374;2024-02-14T13:21:50;7.93;;;5.60;;
11334;SDS011;5722;42.620;23.374;2024-02-14T13:24:17;8.53;;;5.37;;
11334;SDS011;5722;42.620;23.374;2024-02-14T13:26:44;7.00;;;5.60;;
11334;SDS011;5722;42.620;23.374;2024-02-14T13:29:11;11.97;;;5.70;;
11334;SDS011;5722;42.620;23.374;2024-02-14T13:31:45;7.77;;;5.73;;
11334;SDS011;5722;42.620;23.374;2024-02-14T13:34:12;8.73;;;5.87;;
11334;SDS011;5722;42.620;23.374;2024-02-14T13:36:42;7.47;;;5.73;;
11334;SDS011;5722;42.620;23.374;2024-02-14T13:39:11;7.93;;;5.40;;
11334;SDS011;5722;42.620;23.374;2024-02-14T13:41:41;9.40;;;5.67;;
11334;SDS011;5722;42.620;23.374;2024-02-14T13:44:13;6.33;;;5.53;;
11334;SDS011;5722;42.620;23.374;2024-02-14T13:46:48;8.67;;;5.87;;
11334;SDS011;5722;42.620;23.374;2024-02-14T13:49:15;10.83;;;5.80;;
11334;SDS011;5722;42.620;23.374;2024-02-14T13:51:48;7.47;;;5.17;;
11334;SDS011;5722;42.620;23.374;2024-02-14T13:54:18;7.57;;;5.80;;
11334;SDS011;5722;42.620;23.374;2024-02-14T13:56:48;7.47;;;5.63;;
11334;SDS011;5722;42.620;23.374;2024-02-14T13:59:19;6.63;;;5.10;;
11334;SDS011;5722;42.620;23.374;2024-02-14T14:01:47;7.37;;;5.63;;
11334;SDS011;5722;42.620;23.374;2024-02-14T14:04:19;6.17;;;5.47;;
11334;SDS011;5722;42.620;23.374;2024-02-14T14:07:11;6.93;;;5.47;;
11334;SDS011;5722;42.620;23.374;2024-02-14T14:09:40;9.73;;;5.30;;
11334;SDS011;5722;42.620;23.374;2024-02-14T14:12:06;5.83;;;5.13;;
11334;SDS011;5722;42.620;23.374;2024-02-14T14:14:38;7.77;;;5.70;;
11334;SDS011;5722;42.620;23.374;2024-02-14T14:17:09;6.30;;;4.93;;
11334;SDS011;5722;42.620;23.374;2024-02-14T14:19:36;9.00;;;5.50;;
11334;SDS011;5722;42.620;23.374;2024-02-14T14:22:06;7.97;;;5.83;;
11334;SDS011;5722;42.620;23.374;2024-02-14T14:24:36;6.50;;;5.10;;
11334;SDS011;5722;42.620;23.374;2024-02-14T14:27:06;6.13;;;5.20;;
11334;SDS011;5722;42.620;23.374;2024-02-14T14:29:38;6.27;;;5.40;;
11334;SDS011;5722;42.620;23.374;2024-02-14T14:32:13;10.50;;;5.67;;
11334;SDS011;5722;42.620;23.374;2024-02-14T14:34:43;10.50;;;5.30;;
11334;SDS011;5722;42.620;23.374;2024-02-14T14:37:11;9.17;;;5.20;;
11334;SDS011;5722;42.620;23.374;2024-02-14T14:39:40;9.53;;;5.40;;
11334;SDS011;5722;42.620;23.374;2024-02-14T14:42:13;10.00;;;7.10;;
11334;SDS011;5722;42.620;23.374;2024-02-14T14:44:41;9.17;;;5.60;;
11334;SDS011;5722;42.620;23.374;2024-02-14T14:47:08;8.07;;;5.20;;
11334;SDS011;5722;42.620;23.374;2024-02-14T14:49:36;8.40;;;5.40;;
11334;SDS011;5722;42.620;23.374;2024-02-14T14:52:04;9.17;;;5.50;;
11334;SDS011;5722;42.620;23.374;2024-02-14T14:54:34;8.43;;;5.33;;
11334;SDS011;5722;42.620;23.374;2024-02-14T14:57:02;7.67;;;5.30;;
11334;SDS011;5722;42.620;23.374;2024-02-14T14:59:38;13.13;;;5.80;;
11334;SDS011;5722;42.620;23.374;2024-02-14T15:02:09;8.27;;;5.20;;
11334;SDS011;5722;42.620;23.374;2024-02-14T15:04:56;9.20;;;5.00;;
11334;SDS011;5722;42.620;23.374;2024-02-14T15:07:26;6.43;;;5.13;;
11334;SDS011;5722;42.620;23.374;2024-02-14T15:09:55;10.53;;;5.50;;
11334;SDS011;5722;42.620;23.374;2024-02-14T15:12:22;7.87;;;4.77;;
11334;SDS011;5722;42.620;23.374;2024-02-14T15:14:57;9.37;;;5.07;;
11334;SDS011;5722;42.620;23.374;2024-02-14T15:17:25;7.83;;;5.10;;
11334;SDS011;5722;42.620;23.374;2024-02-14T15:19:53;9.33;;;4.97;;